Prospect Harbor, Maine
Current Conditions -  °F | °C
As of 4:35 AM on Friday 19 Dec 2014 (Local Time) from KBHB Reporting Station
Overcast Overcast  
Wind Chill: 25°   Ceiling: 3400
Heat Index: 30°   Visibility: 10mi
Dew Point: 28°   Wind: 5mph
Humidity: 93%   Direction: 300°WNW
Pressure: 29.77"   Gusts: NA
Location:  44.41°N, 68.03°W
Report Text: KBHB 190935Z AUTO 30004KT 10SM OVC034 M01/M02 A2977 RMK AO1
Loading
Personal Weather Stations






























Interactive Weather Map New forecast layout! Learn more

10-Day Weather Forecast

Advertisements
Track Severe Weather on mobile